Thermopolis, WY (82443)

10:29 PM MDT on October 01, 2014 (GMT -0600)
Worland Municipal | Change Station
CLOSE
Current Station
Airport
Location: Worland,
Elevation: 4226 ft
Nearby Weather Stations

Elev 4226 ft 43.97 °N, 107.95 °W | Updated 22 minutes ago

Partly Cloudy
Partly Cloudy
51 °F
Feels Like 51 °F
N
5
Wind Variable Wind from NNE

Today
High -- | Low -- °F
--% Chance of Precip.
Yesterday
High -- | Low -- °F
Precip. -- in
7:10 AM 6:53 PM
First Quarter, 54% visible
Pressure 29.80 in
Visibility 4.0 miles
Clouds Overcast 4300 ft
Dew Point 47 °F
Humidity 86%
Rainfall 0.23 in
Snow Depth 0 in , 0 in , 0 in
UV 0 out of 12
Pollen 1.80 out of 12
Air Quality Not available.
Flu Activity Not available.
METAR KWRL 010407Z AUTO 03004KT 4SM RA BR OVC043 11/08 A2980 RMK AO2 P0004 T01060083

More Conditions Fewer Conditions

Pressure 29.80 in
Visibility 4.0 miles
Clouds Overcast 4300 ft
Dew Point 47 °F
Humidity 86%
Rainfall 0.23 in
Snow Depth 0 in , 0 in , 0 in
UV 0 out of 12
Pollen 1.80 out of 12
Air Quality Not available.
Flu Activity Not available.
METAR KWRL 010407Z AUTO 03004KT 4SM RA BR OVC043 11/08 A2980 RMK AO2 P0004 T01060083

More Conditions Fewer Conditions

10-Day Weather Forecast

Almanac

Astronomy

Oct. 01, 2014 Rise Set
Actual Time 7:10 AM MDT 6:53 PM MDT
Civil Twilight 6:42 AM MDT 7:22 PM MDT
Nautical Twilight 6:08 AM MDT 7:55 PM MDT
Astronomical Twilight 5:34 AM MDT 8:29 PM MDT
Moon 2:22 PM MDT (10/1) No Moon Set
Length of Visible Light 12h 40m
Length of Day
11h 43m
Tomorrow will be 2m 58s shorter.
First Quarter, 54% of the Moon is Illuminated
Oct 2
First Quarter
Oct 8
Full
Oct 15
Last Quarter
Oct 23
New
Oct 30
First Quarter

Yesterday's Extremes

State Highs State Lows

Community

WunderPhotos

Upload Photos

1,758,186 photos uploaded!

Nearby

Snow Depth

Station Depth Elevation
New Fork Lake 0 in 8340 ft
Brooklyn Lake 0 in 10220 ft
East Rim Divide 0 in 7930 ft
Spring Creek Divide 0 in 9000 ft
Blind Bull Summit 2 in 8900 ft

Earthquake Activity

City Distance Mag. Time & Date
No recent earthquake activity has been reported nearby.
Minimum magnitude displayed is 2.5.

Coastal Water Temperatures

Place Temperature
No Stations Reporting

Nearby Weather Stations